Time;durP1;ratioP1;P1;durP2;ratioP2;P2;SDS_P1;SDS_P2;PMS_P1;PMS_P2;Temp;Humidity;BMP_temperature;BMP_pressure;BME280_temperature;BME280_humidity;BME280_pressure;Samples;Min_cycle;Max_cycle;Signal;HPM_P1;HPM_P2
2023/10/20 00:01:51;;;;;;;14.98;12.85;;;;;;;;;;5016020;28;20029;-88
2023/10/20 00:04:17;;;;;;;16.42;12.20;;;;;;;;;;5013268;28;20068;-88
2023/10/20 00:06:44;;;;;;;14.18;11.77;;;;;;;;;;5017670;28;20045;-88
2023/10/20 00:09:14;;;;;;;14.48;11.68;;;;;;;;;;5011800;28;20128;-88
2023/10/20 00:11:41;;;;;;;12.63;10.10;;;;;;;;;;5016235;28;20041;-88
2023/10/20 00:14:07;;;;;;;12.93;10.40;;;;;;;;;;5015481;28;20503;-88
2023/10/20 00:16:33;;;;;;;13.27;10.80;;;;;;;;;;5032027;28;20385;-88
2023/10/20 00:19:02;;;;;;;11.60;9.95;;;;;;;;;;5014347;28;20045;-87
2023/10/20 00:21:31;;;;;;;11.05;9.88;;;;;;;;;;5017030;28;20037;-87
2023/10/20 00:24:00;;;;;;;14.15;10.10;;;;;;;;;;5030648;28;20653;-86
2023/10/20 00:26:26;;;;;;;14.15;10.23;;;;;;;;;;5015940;28;20526;-87
2023/10/20 00:28:52;;;;;;;11.90;9.00;;;;;;;;;;5016565;28;20112;-87
2023/10/20 00:31:18;;;;;;;11.52;8.65;;;;;;;;;;5014848;28;20071;-86
2023/10/20 00:33:45;;;;;;;11.15;8.50;;;;;;;;;;5031174;28;20052;-87
2023/10/20 00:36:12;;;;;;;11.20;8.77;;;;;;;;;;5014616;28;20120;-87
2023/10/20 00:38:38;;;;;;;11.23;8.80;;;;;;;;;;5012639;28;20028;-87
2023/10/20 00:41:04;;;;;;;11.57;9.15;;;;;;;;;;4998073;28;20041;-86
2023/10/20 00:43:35;;;;;;;11.35;8.68;;;;;;;;;;5031188;28;20040;-87
2023/10/20 00:46:01;;;;;;;11.75;9.10;;;;;;;;;;5021737;28;20045;-86
2023/10/20 00:48:27;;;;;;;9.98;8.35;;;;;;;;;;5013820;28;20087;-87
2023/10/20 00:50:54;;;;;;;11.52;8.23;;;;;;;;;;5017318;28;20554;-86
2023/10/20 00:53:22;;;;;;;9.10;8.13;;;;;;;;;;5026992;28;20555;-86
2023/10/20 00:55:48;;;;;;;8.90;8.00;;;;;;;;;;5003473;28;20454;-87
2023/10/20 00:58:14;;;;;;;9.25;8.07;;;;;;;;;;5011181;28;20033;-86
2023/10/20 01:00:40;;;;;;;8.32;7.43;;;;;;;;;;5008239;28;20571;-86
2023/10/20 01:03:07;;;;;;;8.50;6.97;;;;;;;;;;5011871;28;20026;-87
2023/10/20 01:05:33;;;;;;;11.02;7.88;;;;;;;;;;5014991;28;20049;-87
2023/10/20 01:07:59;;;;;;;9.95;7.15;;;;;;;;;;5017575;28;20143;-87
2023/10/20 01:10:25;;;;;;;8.13;6.93;;;;;;;;;;5012626;28;20052;-86
2023/10/20 01:12:51;;;;;;;7.82;6.50;;;;;;;;;;5012446;28;20057;-86
2023/10/20 01:15:18;;;;;;;7.45;6.45;;;;;;;;;;5010688;28;20053;-86
2023/10/20 01:17:44;;;;;;;8.40;6.57;;;;;;;;;;5026549;28;20059;-86
2023/10/20 01:20:11;;;;;;;7.90;6.50;;;;;;;;;;5013016;28;20489;-86
2023/10/20 01:22:37;;;;;;;7.90;6.93;;;;;;;;;;5013470;28;20037;-86
2023/10/20 01:25:04;;;;;;;8.95;6.53;;;;;;;;;;5027974;28;20099;-86
2023/10/20 01:27:30;;;;;;;11.15;7.65;;;;;;;;;;5013456;28;20606;-86
2023/10/20 01:29:56;;;;;;;10.73;8.57;;;;;;;;;;4998258;28;20579;-87
2023/10/20 01:32:22;;;;;;;12.75;9.00;;;;;;;;;;5012860;28;20488;-87
2023/10/20 01:34:48;;;;;;;11.65;8.23;;;;;;;;;;5028975;28;20049;-86
2023/10/20 01:37:15;;;;;;;16.90;10.40;;;;;;;;;;4996802;28;20041;-87
2023/10/20 01:39:41;;;;;;;19.48;11.75;;;;;;;;;;5029711;28;20048;-86
2023/10/20 01:42:08;;;;;;;23.23;14.35;;;;;;;;;;5029476;28;20167;-87
2023/10/20 01:44:34;;;;;;;24.98;16.05;;;;;;;;;;4998747;28;20041;-87
2023/10/20 01:47:00;;;;;;;22.55;15.27;;;;;;;;;;5026283;28;20033;-87
2023/10/20 01:49:26;;;;;;;24.42;15.18;;;;;;;;;;5013635;28;20048;-88
2023/10/20 01:51:53;;;;;;;25.95;15.65;;;;;;;;;;5013880;28;20045;-88
2023/10/20 01:54:19;;;;;;;23.42;16.20;;;;;;;;;;5013332;28;20511;-88
2023/10/20 01:56:45;;;;;;;30.35;17.98;;;;;;;;;;5012910;28;20064;-88
2023/10/20 01:59:11;;;;;;;34.92;18.10;;;;;;;;;;5012690;28;20819;-87
2023/10/20 02:01:37;;;;;;;29.63;18.40;;;;;;;;;;5002375;28;20037;-88
2023/10/20 02:04:03;;;;;;;35.60;21.65;;;;;;;;;;5031337;28;20033;-88
2023/10/20 02:06:29;;;;;;;35.58;20.98;;;;;;;;;;5027810;28;20504;-87
2023/10/20 02:08:56;;;;;;;32.75;20.48;;;;;;;;;;5011419;28;20064;-88
2023/10/20 02:11:22;;;;;;;36.83;23.10;;;;;;;;;;5012738;28;20041;-88
2023/10/20 02:13:48;;;;;;;35.88;21.25;;;;;;;;;;5031972;28;20500;-88
2023/10/20 02:16:15;;;;;;;39.97;22.00;;;;;;;;;;5029254;28;20574;-88
2023/10/20 02:18:41;;;;;;;42.90;23.35;;;;;;;;;;5008565;28;20056;-87
2023/10/20 02:21:09;;;;;;;41.22;24.05;;;;;;;;;;5030177;28;20040;-88
2023/10/20 02:23:38;;;;;;;43.90;25.33;;;;;;;;;;5014680;28;20048;-88
2023/10/20 02:26:08;;;;;;;38.15;24.13;;;;;;;;;;5026181;28;20044;-88
2023/10/20 02:28:34;;;;;;;38.22;22.13;;;;;;;;;;5027774;28;20390;-88
2023/10/20 02:31:01;;;;;;;39.17;24.58;;;;;;;;;;5012420;28;20041;-88
2023/10/20 02:33:27;;;;;;;41.38;22.15;;;;;;;;;;5011904;28;20063;-88
2023/10/20 02:35:54;;;;;;;38.42;23.38;;;;;;;;;;5013290;28;20444;-87
2023/10/20 02:38:20;;;;;;;41.08;21.70;;;;;;;;;;5027923;28;20385;-88
2023/10/20 02:40:50;;;;;;;43.85;22.58;;;;;;;;;;5014116;28;20036;-88
2023/10/20 02:43:16;;;;;;;37.60;23.35;;;;;;;;;;5010760;28;20534;-88
2023/10/20 02:45:52;;;;;;;39.38;23.63;;;;;;;;;;5029991;28;20510;-87
2023/10/20 02:48:19;;;;;;;34.63;20.67;;;;;;;;;;4994999;28;20041;-87
2023/10/20 02:50:46;;;;;;;47.03;24.05;;;;;;;;;;5029525;28;20044;-87
2023/10/20 02:53:15;;;;;;;42.88;23.02;;;;;;;;;;5029501;28;20080;-87
2023/10/20 02:55:42;;;;;;;37.00;23.20;;;;;;;;;;5011954;28;20044;-88
2023/10/20 02:58:10;;;;;;;31.70;21.70;;;;;;;;;;5013054;28;20040;-88
2023/10/20 03:00:38;;;;;;;37.63;21.48;;;;;;;;;;5012726;28;20377;-87
2023/10/20 03:03:04;;;;;;;34.60;21.60;;;;;;;;;;5029363;28;20068;-87
2023/10/20 03:05:30;;;;;;;29.73;20.13;;;;;;;;;;4999285;28;20045;-87
2023/10/20 03:07:59;;;;;;;30.65;19.13;;;;;;;;;;4999066;28;20045;-87
2023/10/20 03:10:26;;;;;;;28.42;18.48;;;;;;;;;;5013903;28;20147;-88
2023/10/20 03:12:52;;;;;;;27.65;18.35;;;;;;;;;;5034335;28;20041;-87
2023/10/20 03:15:19;;;;;;;26.50;17.45;;;;;;;;;;5017674;28;20037;-87
2023/10/20 03:17:45;;;;;;;23.55;16.15;;;;;;;;;;5022053;28;20052;-87
2023/10/20 03:20:24;;;;;;;21.80;15.55;;;;;;;;;;5038176;28;20045;-87
2023/10/20 03:22:50;;;;;;;22.88;14.70;;;;;;;;;;5008479;28;20488;-87
2023/10/20 03:25:17;;;;;;;21.90;14.40;;;;;;;;;;5019253;28;20053;-87
2023/10/20 03:27:44;;;;;;;19.55;14.27;;;;;;;;;;5035913;28;20119;-86
2023/10/20 03:30:10;;;;;;;21.23;15.23;;;;;;;;;;5021804;28;20065;-87
2023/10/20 03:32:36;;;;;;;22.67;14.15;;;;;;;;;;5013563;28;20512;-87
2023/10/20 03:35:02;;;;;;;18.80;13.60;;;;;;;;;;5033689;28;20049;-87
2023/10/20 03:37:29;;;;;;;18.55;13.38;;;;;;;;;;5035944;28;20041;-87
2023/10/20 03:39:55;;;;;;;21.17;13.45;;;;;;;;;;5021498;28;20091;-87
2023/10/20 03:42:21;;;;;;;18.25;13.20;;;;;;;;;;5017505;28;20530;-87
2023/10/20 03:44:48;;;;;;;18.75;12.63;;;;;;;;;;5019898;28;20391;-87
2023/10/20 03:47:15;;;;;;;21.45;12.10;;;;;;;;;;5013557;28;20101;-87
2023/10/20 03:49:41;;;;;;;15.45;11.80;;;;;;;;;;5031546;28;20055;-87
2023/10/20 03:52:11;;;;;;;17.00;12.07;;;;;;;;;;5034155;28;20049;-85
2023/10/20 03:54:38;;;;;;;16.92;11.85;;;;;;;;;;5030990;28;20051;-85
2023/10/20 03:57:05;;;;;;;16.65;11.48;;;;;;;;;;5030858;28;20661;-84
2023/10/20 03:59:31;;;;;;;15.13;10.93;;;;;;;;;;5013730;28;20743;-84
2023/10/20 04:01:57;;;;;;;14.25;10.10;;;;;;;;;;5025721;28;20114;-85
2023/10/20 04:04:23;;;;;;;14.32;10.98;;;;;;;;;;5012315;28;20037;-86
2023/10/20 04:06:49;;;;;;;18.52;11.07;;;;;;;;;;5013508;28;20045;-86
2023/10/20 04:09:19;;;;;;;13.05;9.63;;;;;;;;;;4995865;28;20048;-86
2023/10/20 04:11:45;;;;;;;13.68;9.95;;;;;;;;;;5001863;28;20154;-86
2023/10/20 04:14:12;;;;;;;12.90;9.90;;;;;;;;;;5031011;28;20044;-87
2023/10/20 04:16:42;;;;;;;14.10;9.15;;;;;;;;;;5008641;28;20370;-86
2023/10/20 04:19:14;;;;;;;13.13;9.50;;;;;;;;;;5013660;28;20036;-86
2023/10/20 04:21:43;;;;;;;12.43;8.80;;;;;;;;;;4995492;28;20124;-86
2023/10/20 04:24:12;;;;;;;11.18;8.32;;;;;;;;;;5026267;28;20484;-86
2023/10/20 04:26:41;;;;;;;9.27;7.57;;;;;;;;;;5012075;28;20048;-86
2023/10/20 04:29:23;;;;;;;11.60;7.78;;;;;;;;;;5011746;28;20127;-85
2023/10/20 04:49:03;;;;;;;10.90;6.78;;;;;;;;;;4933885;28;20304;-86
2023/10/20 04:54:10;;;;;;;7.78;5.60;;;;;;;;;;5010569;28;20064;-85
2023/10/20 04:56:38;;;;;;;5.65;4.38;;;;;;;;;;4994062;28;20041;-86
2023/10/20 04:59:05;;;;;;;8.10;5.40;;;;;;;;;;5009864;28;20651;-87
2023/10/20 05:01:46;;;;;;;9.65;4.70;;;;;;;;;;5025559;28;20037;-88
2023/10/20 05:05:01;;;;;;;5.32;4.25;;;;;;;;;;5011220;28;20037;-88
2023/10/20 05:07:26;;;;;;;4.28;3.78;;;;;;;;;;5002113;28;20131;-88
2023/10/20 05:09:54;;;;;;;7.68;3.80;;;;;;;;;;5029059;28;20148;-88
2023/10/20 05:12:20;;;;;;;4.63;3.67;;;;;;;;;;5000057;28;20063;-86
2023/10/20 05:14:49;;;;;;;4.22;3.33;;;;;;;;;;5030054;28;20076;-86
2023/10/20 05:17:17;;;;;;;4.43;3.08;;;;;;;;;;5027928;28;20045;-86
2023/10/20 05:19:44;;;;;;;6.68;3.30;;;;;;;;;;5028458;28;20045;-86
2023/10/20 05:22:10;;;;;;;5.72;2.67;;;;;;;;;;5012280;28;20370;-86
2023/10/20 05:24:36;;;;;;;4.10;3.20;;;;;;;;;;5030656;28;20077;-86
2023/10/20 05:27:03;;;;;;;4.15;3.30;;;;;;;;;;5012967;28;20044;-85
2023/10/20 05:29:29;;;;;;;5.22;3.55;;;;;;;;;;5028738;28;20053;-86
2023/10/20 05:31:55;;;;;;;4.60;3.13;;;;;;;;;;4994774;28;20042;-86
2023/10/20 05:34:21;;;;;;;4.72;3.60;;;;;;;;;;5025804;28;20049;-87
2023/10/20 05:36:47;;;;;;;5.70;3.33;;;;;;;;;;5007555;28;20092;-86
2023/10/20 05:39:13;;;;;;;5.45;3.30;;;;;;;;;;5015457;28;20041;-86
2023/10/20 05:41:40;;;;;;;4.28;3.88;;;;;;;;;;5012588;28;20485;-86
2023/10/20 05:44:11;;;;;;;8.70;4.32;;;;;;;;;;5021412;28;20042;-85
2023/10/20 05:46:40;;;;;;;6.57;3.60;;;;;;;;;;5031632;28;20044;-85
2023/10/20 05:49:08;;;;;;;5.00;3.65;;;;;;;;;;5013472;28;21256;-85
2023/10/20 05:51:34;;;;;;;4.90;3.92;;;;;;;;;;5030732;28;20488;-87
2023/10/20 05:54:00;;;;;;;4.93;3.97;;;;;;;;;;5011228;28;20040;-86
2023/10/20 05:56:26;;;;;;;6.32;4.22;;;;;;;;;;5030043;28;20030;-86
2023/10/20 05:58:52;;;;;;;4.95;3.92;;;;;;;;;;5015479;28;20064;-85
2023/10/20 06:01:18;;;;;;;9.45;5.22;;;;;;;;;;4997957;28;20029;-86
2023/10/20 06:03:44;;;;;;;6.18;4.72;;;;;;;;;;5031055;28;20113;-86
2023/10/20 06:06:11;;;;;;;7.35;4.38;;;;;;;;;;5029216;28;20048;-85
2023/10/20 06:08:37;;;;;;;6.72;4.25;;;;;;;;;;5011994;28;20059;-85
2023/10/20 06:11:04;;;;;;;5.35;4.63;;;;;;;;;;5028016;28;20034;-87
2023/10/20 06:13:32;;;;;;;8.40;4.38;;;;;;;;;;5017669;28;20045;-86
2023/10/20 06:15:59;;;;;;;5.40;4.10;;;;;;;;;;5032426;28;20048;-88
2023/10/20 06:18:27;;;;;;;8.48;4.30;;;;;;;;;;5031013;28;20037;-87
2023/10/20 06:20:53;;;;;;;4.40;3.90;;;;;;;;;;5011886;28;20575;-88
2023/10/20 06:23:19;;;;;;;5.13;4.45;;;;;;;;;;5015461;28;20041;-85
2023/10/20 06:25:46;;;;;;;5.18;4.35;;;;;;;;;;5011092;28;20037;-85
2023/10/20 06:28:12;;;;;;;8.68;4.07;;;;;;;;;;5014012;28;20041;-85
2023/10/20 06:30:43;;;;;;;4.68;4.10;;;;;;;;;;5015887;28;20126;-85
2023/10/20 06:35:50;;;;;;;6.68;3.90;;;;;;;;;;5014189;28;20096;-86
2023/10/20 06:38:18;;;;;;;4.95;4.43;;;;;;;;;;5000451;28;20436;-86
2023/10/20 06:40:47;;;;;;;7.07;4.30;;;;;;;;;;5017658;28;20076;-85
2023/10/20 06:43:16;;;;;;;5.70;4.43;;;;;;;;;;5013677;28;20095;-86
2023/10/20 06:45:42;;;;;;;6.07;4.22;;;;;;;;;;5034350;28;20095;-85
2023/10/20 06:48:09;;;;;;;5.28;4.10;;;;;;;;;;5019340;28;20040;-85
2023/10/20 06:50:36;;;;;;;4.80;3.60;;;;;;;;;;5010227;28;20045;-85
2023/10/20 06:53:02;;;;;;;4.57;3.70;;;;;;;;;;5035038;28;20052;-85
2023/10/20 06:55:28;;;;;;;3.83;3.17;;;;;;;;;;5010440;28;20508;-85
2023/10/20 06:57:54;;;;;;;5.90;3.80;;;;;;;;;;4997615;28;20029;-86
2023/10/20 07:00:20;;;;;;;6.50;4.00;;;;;;;;;;5002559;28;20033;-86
2023/10/20 07:02:47;;;;;;;6.93;3.70;;;;;;;;;;5036714;28;20044;-85
2023/10/20 07:05:14;;;;;;;4.55;3.58;;;;;;;;;;5020289;28;20120;-86
2023/10/20 07:07:40;;;;;;;4.30;3.35;;;;;;;;;;5018765;28;20164;-86
2023/10/20 07:10:10;;;;;;;6.57;3.63;;;;;;;;;;5016685;28;20049;-86
2023/10/20 07:12:37;;;;;;;3.80;3.08;;;;;;;;;;5014659;28;20072;-84
2023/10/20 07:15:05;;;;;;;4.90;2.80;;;;;;;;;;5011715;28;20049;-84
2023/10/20 07:17:32;;;;;;;4.47;3.45;;;;;;;;;;5013105;28;20481;-85
2023/10/20 07:19:58;;;;;;;4.60;2.50;;;;;;;;;;4997529;28;20371;-84
2023/10/20 07:22:26;;;;;;;4.38;2.60;;;;;;;;;;5031208;28;20038;-91
2023/10/20 07:24:52;;;;;;;5.55;2.78;;;;;;;;;;4997048;28;20125;-89
2023/10/20 07:27:19;;;;;;;5.65;3.38;;;;;;;;;;5018573;28;20041;-92
2023/10/20 07:29:45;;;;;;;5.65;2.75;;;;;;;;;;4999638;28;20049;-91
2023/10/20 07:32:12;;;;;;;6.78;2.83;;;;;;;;;;4997692;28;20045;-85
2023/10/20 07:34:38;;;;;;;2.97;2.30;;;;;;;;;;5028888;28;20053;-85
2023/10/20 07:37:06;;;;;;;5.78;3.50;;;;;;;;;;5031675;28;20539;-84
2023/10/20 07:39:34;;;;;;;3.33;2.30;;;;;;;;;;4997197;28;20136;-84
2023/10/20 07:42:00;;;;;;;3.22;2.60;;;;;;;;;;5009806;28;20120;-84
2023/10/20 07:44:26;;;;;;;5.38;2.63;;;;;;;;;;5015916;28;20493;-84
2023/10/20 07:46:53;;;;;;;3.03;2.35;;;;;;;;;;5012661;28;20047;-84
2023/10/20 07:49:19;;;;;;;4.80;2.45;;;;;;;;;;4999981;28;20389;-84
2023/10/20 07:51:45;;;;;;;2.47;2.28;;;;;;;;;;4995045;28;20564;-84
2023/10/20 07:54:12;;;;;;;2.53;2.30;;;;;;;;;;5010476;28;20429;-86
2023/10/20 07:56:38;;;;;;;3.85;2.50;;;;;;;;;;5011242;28;20489;-85
2023/10/20 07:59:05;;;;;;;5.60;2.45;;;;;;;;;;5007489;28;20045;-87
2023/10/20 08:01:31;;;;;;;5.28;2.30;;;;;;;;;;5012283;28;20064;-85
2023/10/20 08:03:57;;;;;;;3.35;2.67;;;;;;;;;;5033204;28;20115;-86
2023/10/20 08:06:24;;;;;;;4.38;2.50;;;;;;;;;;5005238;28;20041;-86
2023/10/20 08:08:50;;;;;;;3.70;2.63;;;;;;;;;;5025885;28;20049;-85
2023/10/20 08:11:16;;;;;;;2.58;2.35;;;;;;;;;;5012873;28;20045;-85
2023/10/20 08:13:50;;;;;;;3.35;2.60;;;;;;;;;;5028067;28;20042;-85
2023/10/20 08:16:16;;;;;;;3.03;2.42;;;;;;;;;;5031368;28;20038;-85
2023/10/20 08:18:42;;;;;;;2.95;2.55;;;;;;;;;;4997478;28;20045;-85
2023/10/20 08:21:12;;;;;;;2.60;1.98;;;;;;;;;;5024998;28;20485;-86
2023/10/20 08:23:38;;;;;;;6.05;1.88;;;;;;;;;;4999144;28;20564;-84
2023/10/20 08:26:05;;;;;;;2.65;1.88;;;;;;;;;;4999840;28;20373;-85
2023/10/20 08:28:31;;;;;;;4.20;1.70;;;;;;;;;;5026686;28;20042;-84
2023/10/20 08:31:13;;;;;;;3.95;1.80;;;;;;;;;;5030256;28;20037;-86
2023/10/20 08:33:39;;;;;;;2.15;1.95;;;;;;;;;;5030444;28;20061;-90
2023/10/20 08:36:11;;;;;;;2.17;1.88;;;;;;;;;;5007600;28;20056;-89
2023/10/20 08:38:37;;;;;;;5.80;3.13;;;;;;;;;;5016134;28;20090;-89
2023/10/20 08:41:08;;;;;;;3.38;2.58;;;;;;;;;;5028736;28;20065;-89
2023/10/20 08:43:34;;;;;;;2.92;2.35;;;;;;;;;;5011496;28;20042;-88
2023/10/20 08:46:00;;;;;;;2.97;2.47;;;;;;;;;;5012232;28;20025;-89
2023/10/20 08:48:27;;;;;;;3.40;2.17;;;;;;;;;;4996809;28;20040;-89
2023/10/20 08:50:54;;;;;;;4.85;3.10;;;;;;;;;;5007941;28;20037;-88
2023/10/20 08:53:21;;;;;;;5.15;2.90;;;;;;;;;;5018698;28;20436;-88
2023/10/20 08:55:48;;;;;;;6.05;3.10;;;;;;;;;;5026627;28;20038;-89
2023/10/20 08:58:14;;;;;;;8.10;2.95;;;;;;;;;;5009224;28;20041;-88
2023/10/20 09:00:40;;;;;;;6.22;3.53;;;;;;;;;;5012597;28;20048;-88
2023/10/20 09:03:06;;;;;;;4.65;3.20;;;;;;;;;;5022966;28;20056;-89
2023/10/20 09:05:32;;;;;;;5.85;3.03;;;;;;;;;;5014409;28;20051;-89
2023/10/20 09:08:00;;;;;;;6.90;3.25;;;;;;;;;;5025663;28;20504;-89
2023/10/20 09:10:26;;;;;;;6.65;3.38;;;;;;;;;;5031725;28;20069;-90
2023/10/20 09:12:52;;;;;;;5.93;3.13;;;;;;;;;;5008856;28;20038;-90
2023/10/20 09:15:18;;;;;;;7.18;3.35;;;;;;;;;;5012467;28;20037;-88
2023/10/20 09:17:44;;;;;;;5.07;2.95;;;;;;;;;;5026864;28;20029;-90
2023/10/20 09:20:11;;;;;;;4.90;3.50;;;;;;;;;;5025949;28;20091;-89
2023/10/20 09:22:38;;;;;;;5.45;3.05;;;;;;;;;;4999743;28;20382;-88
2023/10/20 09:25:10;;;;;;;4.32;3.20;;;;;;;;;;4998473;28;20098;-90
2023/10/20 09:27:37;;;;;;;6.85;3.20;;;;;;;;;;5000368;28;20128;-90
2023/10/20 09:30:08;;;;;;;7.05;3.15;;;;;;;;;;5022307;28;20071;-90
2023/10/20 09:32:35;;;;;;;8.50;3.05;;;;;;;;;;5032179;28;20056;-90
2023/10/20 09:35:02;;;;;;;4.97;2.70;;;;;;;;;;5035311;28;20507;-89
2023/10/20 09:37:30;;;;;;;10.30;3.10;;;;;;;;;;5035163;28;20101;-89
2023/10/20 09:40:02;;;;;;;6.35;2.90;;;;;;;;;;5040419;28;20041;-90
2023/10/20 09:42:28;;;;;;;8.32;2.95;;;;;;;;;;5033494;28;20105;-90
2023/10/20 09:44:59;;;;;;;4.15;2.35;;;;;;;;;;5008150;28;20041;-88
2023/10/20 09:47:29;;;;;;;4.45;2.83;;;;;;;;;;5011161;28;20088;-89
2023/10/20 09:49:55;;;;;;;6.03;2.63;;;;;;;;;;5029097;28;20052;-90
2023/10/20 09:52:21;;;;;;;5.50;2.38;;;;;;;;;;4998448;28;22281;-83
2023/10/20 09:54:50;;;;;;;5.68;2.72;;;;;;;;;;5033358;28;20037;-84
2023/10/20 09:57:17;;;;;;;9.55;3.35;;;;;;;;;;5030346;28;20107;-85
2023/10/20 09:59:43;;;;;;;7.90;2.45;;;;;;;;;;5020858;28;20400;-83
2023/10/20 10:02:09;;;;;;;3.47;2.42;;;;;;;;;;5021198;28;20049;-85
2023/10/20 10:04:36;;;;;;;4.88;2.83;;;;;;;;;;5003245;28;20044;-84
2023/10/20 10:07:09;;;;;;;6.28;2.83;;;;;;;;;;5035063;28;20213;-84
2023/10/20 10:09:40;;;;;;;5.03;2.90;;;;;;;;;;5030664;28;20070;-84
2023/10/20 10:12:14;;;;;;;3.13;2.70;;;;;;;;;;5010734;28;20033;-84
2023/10/20 10:14:40;;;;;;;;;;;7.10;99.90;;;;;;5018488;28;20037;-84
2023/10/20 10:17:12;;;;;;;7.60;2.97;;;;;;;;;;5030159;28;20332;-84
2023/10/20 10:19:50;;;;;;;5.00;3.05;;;;;;;;;;5013581;28;20048;-83
2023/10/20 10:22:16;;;;;;;7.97;3.22;;;;;;;;;;5016929;28;20037;-84
2023/10/20 10:24:48;;;;;;;6.60;3.03;;;;;;;;;;5032850;28;20071;-85
2023/10/20 10:27:16;;;;;;;4.65;2.78;;;;;;;;;;5026855;28;20074;-83
2023/10/20 10:29:50;;;;;;;5.00;3.00;;;;;;;;;;5024217;28;20063;-84
2023/10/20 10:32:20;;;;;;;3.80;3.03;;;;;;;;;;5024514;28;20045;-83
2023/10/20 10:34:52;;;;;;;6.25;2.83;;;;;;;;;;5038022;28;20444;-84
2023/10/20 10:37:28;;;;;;;3.75;2.80;;;;;;;;;;5034120;28;20041;-83
2023/10/20 10:40:04;;;;;;;3.65;2.72;;;;;;;;;;5039481;28;20119;-84
2023/10/20 10:42:30;;;;;;;3.30;2.83;;;;;;;;;;5029340;28;20075;-83
2023/10/20 10:44:56;;;;;;;5.38;3.35;;;;;;;;;;5027552;28;20048;-84
2023/10/20 10:47:23;;;;;;;5.70;3.67;;;;;;;;;;5007438;28;20037;-83
2023/10/20 10:49:49;;;;;;;6.25;3.90;;;;;;;;;;5028327;28;20124;-82
2023/10/20 10:52:16;;;;;;;5.53;2.83;;;;;;;;;;5010091;28;20583;-87
2023/10/20 10:54:43;;;;;;;5.20;2.92;;;;;;;;;;5025582;28;20414;-84
2023/10/20 10:57:09;;;;;;;2.80;2.60;;;;;;;;;;5016785;28;20043;-85
2023/10/20 10:59:36;;;;;;;4.93;2.70;;;;;;;;;;5016242;28;20404;-83
2023/10/20 11:02:03;;;;;;;2.60;2.40;;;;;;;;;;5029767;28;20041;-83
2023/10/20 11:04:29;;;;;;;3.40;2.33;;;;;;;;;;5020266;28;20442;-85
2023/10/20 11:06:55;;;;;;;4.82;2.60;;;;;;;;;;5020032;28;20107;-87
2023/10/20 11:09:27;;;;;;;5.47;2.22;;;;;;;;;;5032718;28;20119;-86
2023/10/20 11:11:53;;;;;;;3.72;2.58;;;;;;;;;;5015698;28;20514;-87
2023/10/20 11:14:20;;;;;;;4.10;2.03;;;;;;;;;;5016047;28;20037;-87
2023/10/20 11:16:47;;;;;;;4.35;2.15;;;;;;;;;;5017013;28;20090;-87
2023/10/20 11:19:13;;;;;;;3.70;2.10;;;;;;;;;;5018974;28;20041;-87
2023/10/20 11:21:44;;;;;;;3.47;1.85;;;;;;;;;;5015591;28;20051;-86
2023/10/20 11:24:10;;;;;;;4.22;2.17;;;;;;;;;;5013665;28;20041;-87
2023/10/20 11:26:36;;;;;;;8.65;2.67;;;;;;;;;;5026642;28;20037;-88
2023/10/20 11:29:03;;;;;;;4.13;2.45;;;;;;;;;;5017691;28;20133;-88
2023/10/20 11:31:29;;;;;;;4.18;2.35;;;;;;;;;;5036691;28;20049;-86
2023/10/20 11:33:56;;;;;;;10.60;2.75;;;;;;;;;;5018019;28;20520;-88
2023/10/20 11:36:22;;;;;;;5.93;2.47;;;;;;;;;;5033207;28;20420;-87
2023/10/20 11:38:48;;;;;;;9.27;3.20;;;;;;;;;;5011954;28;20041;-88
2023/10/20 11:41:14;;;;;;;2.75;2.25;;;;;;;;;;5028687;28;20036;-87
2023/10/20 11:43:40;;;;;;;5.13;2.72;;;;;;;;;;5038848;28;20039;-89
2023/10/20 11:46:10;;;;;;;7.60;2.30;;;;;;;;;;5017545;28;20041;-89
2023/10/20 11:48:36;;;;;;;7.05;2.85;;;;;;;;;;5020175;28;20044;-88
2023/10/20 11:51:02;;;;;;;9.70;3.30;;;;;;;;;;5021196;28;20044;-88
2023/10/20 11:53:28;;;;;;;10.85;3.45;;;;;;;;;;5032704;28;20499;-88
2023/10/20 11:55:54;;;;;;;16.20;4.35;;;;;;;;;;5032283;28;20048;-86
2023/10/20 11:58:20;;;;;;;18.15;3.30;;;;;;;;;;5037770;28;20041;-87
2023/10/20 12:00:46;;;;;;;8.10;3.00;;;;;;;;;;5029916;28;20048;-88
2023/10/20 12:03:12;;;;;;;8.50;2.60;;;;;;;;;;5030625;28;20069;-84
2023/10/20 12:05:39;;;;;;;8.15;2.67;;;;;;;;;;5035466;28;20037;-83
2023/10/20 12:08:06;;;;;;;11.80;4.47;;;;;;;;;;5021878;28;20049;-82
2023/10/20 12:10:32;;;;;;;4.97;2.28;;;;;;;;;;5021805;28;20216;-86
2023/10/20 12:13:04;;;;;;;4.40;2.90;;;;;;;;;;5034268;28;20194;-88
2023/10/20 12:15:30;;;;;;;8.75;2.78;;;;;;;;;;5002912;28;20041;-88
2023/10/20 12:17:57;;;;;;;5.32;2.85;;;;;;;;;;5003846;28;20044;-88
2023/10/20 12:20:24;;;;;;;8.10;2.65;;;;;;;;;;5020496;28;20041;-87
2023/10/20 12:22:55;;;;;;;11.13;2.92;;;;;;;;;;5023637;28;20044;-87
2023/10/20 12:25:21;;;;;;;3.70;2.38;;;;;;;;;;5003977;28;20392;-89
2023/10/20 12:27:48;;;;;;;4.07;2.35;;;;;;;;;;5015143;28;20041;-89
2023/10/20 12:30:15;;;;;;;5.82;2.90;;;;;;;;;;5023993;28;20045;-88
2023/10/20 12:32:43;;;;;;;9.57;3.45;;;;;;;;;;5002394;28;20040;-85
2023/10/20 12:35:12;;;;;;;8.00;2.70;;;;;;;;;;5031881;28;20411;-89
2023/10/20 12:37:38;;;;;;;3.30;2.38;;;;;;;;;;5036403;28;20041;-87
2023/10/20 12:40:05;;;;;;;7.60;2.60;;;;;;;;;;5017670;28;20041;-90
2023/10/20 12:42:32;;;;;;;4.13;2.38;;;;;;;;;;5031436;28;20100;-90
2023/10/20 12:45:01;;;;;;;5.65;2.47;;;;;;;;;;5021084;28;20045;-89
2023/10/20 12:47:27;;;;;;;6.07;2.40;;;;;;;;;;5005910;28;20041;-90
2023/10/20 12:49:56;;;;;;;4.97;2.05;;;;;;;;;;5045184;28;20549;-90
2023/10/20 12:52:22;;;;;;;3.80;1.88;;;;;;;;;;5031357;28;20036;-90
2023/10/20 12:54:50;;;;;;;10.10;2.30;;;;;;;;;;5037064;28;20148;-89
2023/10/20 12:57:16;;;;;;;19.60;2.67;;;;;;;;;;4996839;28;20056;-85
2023/10/20 12:59:43;;;;;;;6.68;1.90;;;;;;;;;;5015975;28;20041;-88
2023/10/20 13:02:09;;;;;;;5.25;2.47;;;;;;;;;;5022473;28;22143;-88
2023/10/20 13:04:36;;;;;;;6.13;1.95;;;;;;;;;;5041089;28;20102;-89
2023/10/20 13:07:02;;;;;;;3.95;2.17;;;;;;;;;;5015989;28;20047;-89
2023/10/20 13:09:28;;;;;;;12.60;2.20;;;;;;;;;;5030000;28;20075;-89
2023/10/20 13:11:57;;;;;;;5.30;2.20;;;;;;;;;;5009082;28;20109;-87
2023/10/20 13:14:23;;;;;;;8.32;2.10;;;;;;;;;;5018958;28;20136;-89
2023/10/20 13:16:50;;;;;;;4.28;1.50;;;;;;;;;;5021758;28;20037;-89
2023/10/20 13:19:16;;;;;;;6.35;2.25;;;;;;;;;;5008533;28;20036;-89
2023/10/20 13:21:42;;;;;;;3.85;1.83;;;;;;;;;;5042951;28;20075;-89
2023/10/20 13:24:09;;;;;;;2.20;1.67;;;;;;;;;;5036727;28;20128;-87
2023/10/20 13:26:35;;;;;;;4.63;1.90;;;;;;;;;;5029772;28;20045;-88
2023/10/20 13:29:01;;;;;;;3.17;1.80;;;;;;;;;;5035231;28;20499;-86
2023/10/20 13:31:27;;;;;;;5.10;2.00;;;;;;;;;;5020526;28;20049;-85
2023/10/20 13:33:55;;;;;;;3.30;1.50;;;;;;;;;;5000716;28;20055;-87
2023/10/20 13:36:21;;;;;;;10.18;1.75;;;;;;;;;;5017667;28;20044;-86
2023/10/20 13:38:48;;;;;;;7.43;2.05;;;;;;;;;;5005468;28;20112;-88
2023/10/20 13:41:15;;;;;;;10.00;2.30;;;;;;;;;;5018429;28;20045;-87
2023/10/20 13:43:44;;;;;;;9.32;2.28;;;;;;;;;;5008739;28;20033;-87
2023/10/20 13:46:10;;;;;;;2.92;2.03;;;;;;;;;;5021163;28;20476;-87
2023/10/20 13:48:37;;;;;;;8.30;1.85;;;;;;;;;;5037553;28;20072;-88
2023/10/20 13:51:03;;;;;;;6.57;1.73;;;;;;;;;;5003719;28;20090;-85
2023/10/20 13:53:29;;;;;;;5.93;2.08;;;;;;;;;;5035406;28;20045;-88
2023/10/20 13:55:55;;;;;;;5.78;2.15;;;;;;;;;;5009890;28;20043;-86
2023/10/20 13:58:21;;;;;;;7.00;1.75;;;;;;;;;;5006351;28;20093;-87
2023/10/20 14:00:49;;;;;;;3.40;1.80;;;;;;;;;;5001211;28;20064;-87
2023/10/20 14:03:15;;;;;;;6.18;1.83;;;;;;;;;;5025204;28;20045;-88
2023/10/20 14:05:51;;;;;;;3.13;1.67;;;;;;;;;;5026399;28;20121;-87
2023/10/20 14:08:17;;;;;;;5.13;1.50;;;;;;;;;;5010287;28;20102;-87
2023/10/20 14:10:43;;;;;;;3.65;1.52;;;;;;;;;;5030943;28;20052;-87
2023/10/20 14:13:10;;;;;;;5.25;2.38;;;;;;;;;;5004514;28;20490;-87
2023/10/20 14:15:36;;;;;;;7.03;1.70;;;;;;;;;;5007095;28;20049;-86
2023/10/20 14:18:02;;;;;;;8.40;1.92;;;;;;;;;;5017622;28;20515;-88
2023/10/20 14:20:31;;;;;;;3.45;1.70;;;;;;;;;;5004284;28;20040;-85
2023/10/20 14:22:57;;;;;;;7.53;1.90;;;;;;;;;;5037065;28;20087;-84
2023/10/20 14:25:23;;;;;;;3.42;1.50;;;;;;;;;;5038413;28;20049;-83
2023/10/20 14:27:49;;;;;;;3.70;1.80;;;;;;;;;;5014107;28;20108;-82
2023/10/20 14:30:15;;;;;;;8.23;2.05;;;;;;;;;;5007653;28;20574;-84
2023/10/20 14:32:41;;;;;;;1.55;1.30;;;;;;;;;;5014412;28;20040;-84
2023/10/20 14:35:07;;;;;;;3.85;1.75;;;;;;;;;;5029543;28;20041;-84
2023/10/20 14:37:33;;;;;;;5.43;2.35;;;;;;;;;;5015938;28;20053;-83
2023/10/20 14:39:59;;;;;;;8.15;2.05;;;;;;;;;;5030882;28;20123;-83
2023/10/20 14:42:26;;;;;;;5.25;1.80;;;;;;;;;;5006960;28;20037;-83
2023/10/20 14:44:52;;;;;;;6.35;1.73;;;;;;;;;;5029492;28;20037;-82
2023/10/20 14:47:18;;;;;;;12.05;2.65;;;;;;;;;;5013670;28;20052;-84
2023/10/20 14:49:44;;;;;;;12.68;2.47;;;;;;;;;;5013211;28;20037;-82
2023/10/20 14:52:12;;;;;;;7.05;2.13;;;;;;;;;;5014533;28;20041;-83
2023/10/20 14:54:39;;;;;;;9.32;2.47;;;;;;;;;;4998107;28;20254;-83
2023/10/20 14:57:05;;;;;;;13.65;2.58;;;;;;;;;;5004972;28;20048;-82
2023/10/20 14:59:31;;;;;;;5.20;1.50;;;;;;;;;;5012251;28;20499;-85